| time (UTC) | temp F | wind direction | speed MPH | gust MPH | rain 1hr in | rain 24hr in | rain mn in | humidity % | barometer mb |
| 20260506154626 | 52 | 22 | 0.0 | 0.0 | 0.00 | 0.00 | 0.00 | 59 | 1008.3 |
| 20260506152836 | 52 | 180 | 0.0 | 0.0 | 0.00 | 0.00 | 0.00 | 59 | 1007.5 |
| 20260506151056 | 53 | 157 | 0.0 | 0.0 | 0.00 | 0.00 | 0.00 | 59 | 1007.7 |
| 20260506145241 | 54 | 157 | 0.0 | 0.0 | 0.00 | 0.00 | 0.00 | 59 | 1008.1 |
| 20260506143501 | 55 | 157 | 0.0 | 5.0 | 0.00 | 0.00 | 0.00 | 59 | 1007.8 |
| 20260506141846 | 56 | 135 | 0.0 | 0.0 | 0.00 | 0.00 | 0.00 | 59 | 1007.5 |
| 20260506140118 | 55 | 135 | 0.0 | 0.0 | 0.00 | 0.00 | 0.00 | 60 | 1009.7 |
| 20260506134206 | 55 | 112 | 0.0 | 6.0 | 0.00 | 0.00 | 0.00 | 61 | 1009.5 |
| 20260506132451 | 55 | 157 | 0.0 | 8.0 | 0.00 | 0.00 | 0.00 | 61 | 1009.0 |
| 20260506130651 | 54 | 157 | 0.0 | 14.0 | 0.00 | 0.00 | 0.00 | 61 | 1008.6 |
| 20260506124816 | 56 | 135 | 12.0 | 12.0 | 0.00 | 0.00 | 0.00 | 60 | 1009.7 |
| 20260506123041 | 57 | 135 | 0.0 | 0.0 | 0.00 | 0.00 | 0.00 | 60 | 1009.5 |
| 20260506121121 | 57 | 135 | 0.0 | 18.0 | 0.00 | 0.00 | 0.00 | 61 | 1009.3 |
| 20260506115426 | 58 | 180 | 0.0 | 6.0 | 0.00 | 0.00 | 0.00 | 61 | 1010.1 |
| 20260506113656 | 55 | 67 | 0.0 | 11.0 | 0.00 | 0.00 | 0.00 | 63 | 1009.2 |
| 20260506111851 | 55 | 90 | 13.0 | 18.0 | 0.00 | 0.00 | 0.00 | 64 | 1008.7 |
| 20260506110011 | 57 | 135 | 0.0 | 20.0 | 0.00 | 0.00 | 0.00 | 62 | 1009.8 |
| 20260506104311 | 57 | 22 | 0.0 | 0.0 | 0.00 | 0.00 | 0.00 | 62 | 1009.2 |
| 20260506102526 | 57 | 67 | 0.0 | 20.0 | 0.00 | 0.00 | 0.00 | 61 | 1009.7 |
| 20260506100811 | 58 | 180 | 0.0 | 13.0 | 0.00 | 0.00 | 0.00 | 60 | 1009.4 |
| 20260506095106 | 59 | 157 | 0.0 | 0.0 | 0.00 | 0.00 | 0.00 | 60 | 1009.0 |
| 20260506093346 | 57 | 157 | 0.0 | 20.0 | 0.00 | 0.00 | 0.00 | 60 | 1009.8 |
| 20260506091621 | 59 | 0 | 0.0 | 12.0 | 0.00 | 0.00 | 0.00 | 58 | 1009.8 |
| 20260506085751 | 60 | 157 | 0.0 | 10.0 | 0.00 | 0.00 | 0.00 | 57 | 1008.7 |
| 20260506084121 | 58 | 202 | 0.0 | 0.0 | 0.00 | 0.00 | 0.00 | 58 | 1009.1 |
| 20260506082346 | 58 | 270 | 0.0 | 0.0 | 0.00 | 0.00 | 0.00 | 60 | 1009.2 |
| 20260506080556 | 56 | 0 | 0.0 | 0.0 | 0.00 | 0.00 | 0.00 | 61 | 1008.9 |
| 20260506072846 | 54 | 292 | 0.0 | 0.0 | 0.00 | 0.00 | 0.00 | 65 | 1008.0 |
| 20260506071151 | 54 | 315 | 12.0 | 21.0 | 0.00 | 0.00 | 0.00 | 66 | 1009.5 |
| 20260506061626 | 55 | 315 | 0.0 | 0.0 | 0.00 | 0.00 | 0.00 | 71 | 1008.8 |
| 20260506050456 | 52 | 315 | 0.0 | 0.0 | 0.00 | 0.00 | 0.00 | 76 | 1008.3 |
| 20260506044611 | 50 | 315 | 0.0 | 0.0 | 0.00 | 0.00 | 0.00 | 77 | 1009.0 |
| 20260506042841 | 49 | 315 | 0.0 | 0.0 | 0.00 | 0.00 | 0.00 | 78 | 1008.7 |
| 20260506041121 | 49 | 292 | 0.0 | 0.0 | 0.00 | 0.00 | 0.00 | 79 | 1007.2 |
| 20260506035406 | 47 | 270 | 0.0 | 0.0 | 0.00 | 0.00 | 0.00 | 79 | 1006.9 |
| 20260506033621 | 45 | 270 | 0.0 | 0.0 | 0.00 | 0.00 | 0.00 | 80 | 1007.7 |
| 20260506031721 | 42 | 247 | 0.0 | 0.0 | 0.00 | 0.00 | 0.00 | 81 | 1006.3 |
| 20260506030001 | 40 | 292 | 0.0 | 0.0 | 0.00 | 0.00 | 0.00 | 81 | 1007.0 |
| 20260506024056 | 39 | 247 | 0.0 | 0.0 | 0.00 | 0.00 | 0.00 | 82 | 1006.9 |
| 20260506022151 | 38 | 247 | 0.0 | 0.0 | 0.00 | 0.00 | 0.00 | 83 | 1007.7 |
| 20260506020331 | 37 | 270 | 0.0 | 0.0 | 0.00 | 0.00 | 0.00 | 82 | 1006.6 |
| 20260506014641 | 38 | 247 | 0.0 | 0.0 | 0.00 | 0.00 | 0.00 | 82 | 1005.8 |
| 20260506012841 | 39 | 225 | 0.0 | 0.0 | 0.00 | 0.00 | 0.00 | 82 | 1006.8 |
| 20260506011141 | 38 | 247 | 0.0 | 0.0 | 0.00 | 0.00 | 0.00 | 82 | 1005.4 |
| 20260506005356 | 37 | 247 | 0.0 | 0.0 | 0.00 | 0.00 | 0.00 | 82 | 1006.2 |
| 20260506003501 | 38 | 225 | 0.0 | 0.0 | 0.00 | 0.00 | 0.00 | 81 | 1005.9 |
| 20260506001601 | 38 | 202 | 0.0 | 0.0 | 0.00 | 0.00 | 0.00 | 81 | 1004.6 |
| 20260505235811 | 39 | 247 | 0.0 | 0.0 | 0.00 | 0.00 | 0.00 | 81 | 1005.1 |
| 20260505234056 | 38 | 202 | 0.0 | 0.0 | 0.00 | 0.00 | 0.00 | 80 | 1005.2 |
| 20260505232221 | 37 | 247 | 0.0 | 0.0 | 0.00 | 0.00 | 0.00 | 80 | 1005.4 |
| 20260505230301 | 36 | 247 | 0.0 | 0.0 | 0.00 | 0.00 | 0.00 | 80 | 1003.9 |
| 20260505224531 | 37 | 247 | 0.0 | 0.0 | 0.00 | 0.00 | 0.00 | 79 | 1005.1 |
| 20260505222721 | 39 | 225 | 0.0 | 0.0 | 0.00 | 0.00 | 0.00 | 79 | 1006.2 |
| 20260505220941 | 39 | 202 | 0.0 | 0.0 | 0.00 | 0.00 | 0.00 | 78 | 1005.4 |
| 20260505215256 | 39 | 225 | 0.0 | 0.0 | 0.00 | 0.00 | 0.00 | 78 | 1004.7 |
| 20260505213436 | 39 | 202 | 0.0 | 0.0 | 0.00 | 0.00 | 0.00 | 77 | 1004.8 |
| 20260505211601 | 39 | 202 | 0.0 | 0.0 | 0.00 | 0.00 | 0.00 | 77 | 1005.8 |
| 20260505205745 | 39 | 180 | 0.0 | 0.0 | 0.00 | 0.00 | 0.00 | 76 | 1004.9 |
| 20260505203941 | 40 | 202 | 0.0 | 0.0 | 0.00 | 0.00 | 0.00 | 75 | 1004.6 |
| 20260505202156 | 41 | 180 | 0.0 | 0.0 | 0.00 | 0.00 | 0.00 | 74 | 1004.1 |
| 20260505200521 | 41 | 225 | 0.0 | 0.0 | 0.00 | 0.00 | 0.00 | 74 | 1005.0 |
| 20260505194811 | 42 | 202 | 0.0 | 0.0 | 0.00 | 0.00 | 0.00 | 73 | 1004.8 |
| 20260505192936 | 43 | 247 | 0.0 | 0.0 | 0.00 | 0.00 | 0.00 | 71 | 1004.4 |
| 20260505191241 | 43 | 270 | 0.0 | 0.0 | 0.00 | 0.00 | 0.00 | 70 | 1005.2 |
| 20260505185456 | 44 | 247 | 0.0 | 0.0 | 0.00 | 0.00 | 0.00 | 69 | 1004.4 |
| 20260505183601 | 45 | 292 | 0.0 | 0.0 | 0.00 | 0.00 | 0.00 | 68 | 1004.4 |
| 20260505181631 | 46 | 270 | 0.0 | 0.0 | 0.00 | 0.00 | 0.00 | 66 | 1004.2 |
| 20260505175811 | 47 | 292 | 0.0 | 0.0 | 0.00 | 0.00 | 0.00 | 64 | 1003.4 |
| 20260505174026 | 48 | 270 | 0.0 | 0.0 | 0.00 | 0.00 | 0.00 | 63 | 1004.1 |
| 20260505172421 | 50 | 292 | 0.0 | 0.0 | 0.00 | 0.00 | 0.00 | 62 | 1003.8 |
| 20260505170711 | 51 | 292 | 0.0 | 18.0 | 0.00 | 0.00 | 0.00 | 61 | 1003.2 |
| 20260505165001 | 52 | 270 | 0.0 | 20.0 | 0.00 | 0.00 | 0.00 | 61 | 1005.0 |
| 20260505163236 | 53 | 247 | 0.0 | 0.0 | 0.00 | 0.00 | 0.00 | 61 | 1003.6 |
| 20260505161551 | 54 | 180 | 0.0 | 0.0 | 0.00 | 0.00 | 0.00 | 60 | 1003.5 |